0AR2 weather

Mission Field-Marotti Memorial Airport
Crawfordsville, Arkansas, United States

Public forecast

Using degrees Fahrenheit for public forecast. Weather courtesy of forecast.io.

METAR (pilot weather report)

Closest report is West Memphis Municipal Airport, 9.7 nm (18.0 km) SE. Retrieved 2019/06/26 22:53 UTC (1 hour ago):

KAWM 262253Z AUTO 25007KT 9SM FEW042 31/22 A3009 RMK AO2 SLP184 T03110217

TAF (pilot weather forecast)

Closest forecast is Memphis International Airport, 22.7 nm (42.1 km) SE. Retrieved 2019/06/26 18:30 UTC (5 hours ago):

TAF KMEM 261727Z 2618/2724 23009KT P6SM FEW040 SCT150 BKN250 FM270200 VRB03KT P6SM SCT050 BKN250 FM271400 24006KT P6SM SCT050 BKN150